sensor_id;sensor_type;location;lat;lon;timestamp;temperature;humidity
73547;SHT30;61807;48.384;-4.386;2022-09-02T00:00:48;19.27;79.85
73547;SHT30;61807;48.384;-4.386;2022-09-02T00:03:14;19.27;79.82
73547;SHT30;61807;48.384;-4.386;2022-09-02T00:05:41;19.23;79.93
73547;SHT30;61807;48.384;-4.386;2022-09-02T00:08:08;19.24;80.00
73547;SHT30;61807;48.384;-4.386;2022-09-02T00:10:36;19.22;79.99
73547;SHT30;61807;48.384;-4.386;2022-09-02T00:13:03;19.22;79.88
73547;SHT30;61807;48.384;-4.386;2022-09-02T00:15:29;19.20;79.89
73547;SHT30;61807;48.384;-4.386;2022-09-02T00:17:54;19.22;79.86
73547;SHT30;61807;48.384;-4.386;2022-09-02T00:20:20;19.17;79.90
73547;SHT30;61807;48.384;-4.386;2022-09-02T00:22:46;19.12;79.91
73547;SHT30;61807;48.384;-4.386;2022-09-02T00:25:11;19.13;79.92
73547;SHT30;61807;48.384;-4.386;2022-09-02T00:27:37;19.16;79.96
73547;SHT30;61807;48.384;-4.386;2022-09-02T00:30:04;19.13;79.92
73547;SHT30;61807;48.384;-4.386;2022-09-02T00:32:30;19.13;79.93
73547;SHT30;61807;48.384;-4.386;2022-09-02T00:34:55;19.10;79.94
73547;SHT30;61807;48.384;-4.386;2022-09-02T00:37:22;19.13;79.95
73547;SHT30;61807;48.384;-4.386;2022-09-02T00:39:48;19.10;79.96
73547;SHT30;61807;48.384;-4.386;2022-09-02T00:42:15;19.15;80.03
73547;SHT30;61807;48.384;-4.386;2022-09-02T00:44:41;19.16;80.02
73547;SHT30;61807;48.384;-4.386;2022-09-02T00:47:06;19.17;80.08
73547;SHT30;61807;48.384;-4.386;2022-09-02T00:49:35;19.19;80.09
73547;SHT30;61807;48.384;-4.386;2022-09-02T00:57:49;19.20;80.12
73547;SHT30;61807;48.384;-4.386;2022-09-02T01:00:24;19.20;80.15
73547;SHT30;61807;48.384;-4.386;2022-09-02T01:02:54;19.22;80.09
73547;SHT30;61807;48.384;-4.386;2022-09-02T01:05:22;19.16;80.03
73547;SHT30;61807;48.384;-4.386;2022-09-02T01:07:49;19.12;79.97
73547;SHT30;61807;48.384;-4.386;2022-09-02T01:10:34;19.10;79.94
73547;SHT30;61807;48.384;-4.386;2022-09-02T01:13:04;19.10;79.92
73547;SHT30;61807;48.384;-4.386;2022-09-02T01:15:32;19.03;79.90
73547;SHT30;61807;48.384;-4.386;2022-09-02T01:18:01;18.98;79.97
73547;SHT30;61807;48.384;-4.386;2022-09-02T01:20:27;18.92;80.07
73547;SHT30;61807;48.384;-4.386;2022-09-02T01:22:53;18.95;80.13
73547;SHT30;61807;48.384;-4.386;2022-09-02T01:25:22;18.88;80.18
73547;SHT30;61807;48.384;-4.386;2022-09-02T01:27:48;18.82;80.33
73547;SHT30;61807;48.384;-4.386;2022-09-02T01:30:19;18.78;80.40
73547;SHT30;61807;48.384;-4.386;2022-09-02T01:32:44;18.75;80.30
73547;SHT30;61807;48.384;-4.386;2022-09-02T01:35:11;18.72;80.42
73547;SHT30;61807;48.384;-4.386;2022-09-02T01:37:37;18.72;80.40
73547;SHT30;61807;48.384;-4.386;2022-09-02T01:40:08;18.68;80.40
73547;SHT30;61807;48.384;-4.386;2022-09-02T01:42:35;18.68;80.31
73547;SHT30;61807;48.384;-4.386;2022-09-02T01:45:00;18.67;80.27
73547;SHT30;61807;48.384;-4.386;2022-09-02T01:47:27;18.61;80.18
73547;SHT30;61807;48.384;-4.386;2022-09-02T01:49:53;18.62;80.18
73547;SHT30;61807;48.384;-4.386;2022-09-02T01:52:21;18.59;80.14
73547;SHT30;61807;48.384;-4.386;2022-09-02T01:54:47;18.57;80.08
73547;SHT30;61807;48.384;-4.386;2022-09-02T01:57:13;18.55;80.14
73547;SHT30;61807;48.384;-4.386;2022-09-02T01:59:39;18.52;80.08
73547;SHT30;61807;48.384;-4.386;2022-09-02T02:02:04;18.50;80.12
73547;SHT30;61807;48.384;-4.386;2022-09-02T02:04:30;18.47;80.09
73547;SHT30;61807;48.384;-4.386;2022-09-02T02:06:56;18.45;80.13
73547;SHT30;61807;48.384;-4.386;2022-09-02T02:09:22;18.47;80.08
73547;SHT30;61807;48.384;-4.386;2022-09-02T02:11:49;18.43;80.10
73547;SHT30;61807;48.384;-4.386;2022-09-02T02:14:15;18.40;80.12
73547;SHT30;61807;48.384;-4.386;2022-09-02T02:16:41;18.41;80.11
73547;SHT30;61807;48.384;-4.386;2022-09-02T02:19:06;18.40;80.08
73547;SHT30;61807;48.384;-4.386;2022-09-02T02:21:33;18.40;80.07
73547;SHT30;61807;48.384;-4.386;2022-09-02T02:23:58;18.38;80.12
73547;SHT30;61807;48.384;-4.386;2022-09-02T02:26:30;18.37;80.16
73547;SHT30;61807;48.384;-4.386;2022-09-02T02:28:55;18.37;80.21
73547;SHT30;61807;48.384;-4.386;2022-09-02T02:31:21;18.38;80.22
73547;SHT30;61807;48.384;-4.386;2022-09-02T02:33:46;18.40;80.22
73547;SHT30;61807;48.384;-4.386;2022-09-02T02:36:13;18.41;80.24
73547;SHT30;61807;48.384;-4.386;2022-09-02T02:38:39;18.43;80.27
73547;SHT30;61807;48.384;-4.386;2022-09-02T02:41:05;18.43;80.38
73547;SHT30;61807;48.384;-4.386;2022-09-02T02:43:32;18.45;80.36
73547;SHT30;61807;48.384;-4.386;2022-09-02T02:45:58;18.47;80.33
73547;SHT30;61807;48.384;-4.386;2022-09-02T02:48:24;18.45;80.32
73547;SHT30;61807;48.384;-4.386;2022-09-02T02:50:50;18.44;80.30
73547;SHT30;61807;48.384;-4.386;2022-09-02T02:53:16;18.44;80.31
73547;SHT30;61807;48.384;-4.386;2022-09-02T02:55:42;18.44;80.20
73547;SHT30;61807;48.384;-4.386;2022-09-02T02:58:07;18.43;80.23
73547;SHT30;61807;48.384;-4.386;2022-09-02T03:00:33;18.41;80.20
73547;SHT30;61807;48.384;-4.386;2022-09-02T03:03:05;18.41;80.28
73547;SHT30;61807;48.384;-4.386;2022-09-02T03:05:32;18.41;80.24
73547;SHT30;61807;48.384;-4.386;2022-09-02T03:07:58;18.41;80.29
73547;SHT30;61807;48.384;-4.386;2022-09-02T03:10:24;18.41;80.34
73547;SHT30;61807;48.384;-4.386;2022-09-02T03:12:50;18.37;80.41
73547;SHT30;61807;48.384;-4.386;2022-09-02T03:15:18;18.38;80.45
73547;SHT30;61807;48.384;-4.386;2022-09-02T03:17:45;18.41;80.53
73547;SHT30;61807;48.384;-4.386;2022-09-02T03:20:11;18.40;80.56
73547;SHT30;61807;48.384;-4.386;2022-09-02T03:22:37;18.43;80.62
73547;SHT30;61807;48.384;-4.386;2022-09-02T03:25:07;18.41;80.74
73547;SHT30;61807;48.384;-4.386;2022-09-02T03:27:33;18.45;80.76
73547;SHT30;61807;48.384;-4.386;2022-09-02T03:29:59;18.48;80.77
73547;SHT30;61807;48.384;-4.386;2022-09-02T03:32:25;18.51;80.82
73547;SHT30;61807;48.384;-4.386;2022-09-02T03:34:52;18.54;80.88
73547;SHT30;61807;48.384;-4.386;2022-09-02T03:37:18;18.57;80.89
73547;SHT30;61807;48.384;-4.386;2022-09-02T03:39:44;18.59;80.87
73547;SHT30;61807;48.384;-4.386;2022-09-02T03:42:09;18.58;80.94
73547;SHT30;61807;48.384;-4.386;2022-09-02T03:44:35;18.65;80.92
73547;SHT30;61807;48.384;-4.386;2022-09-02T03:47:01;18.67;80.85
73547;SHT30;61807;48.384;-4.386;2022-09-02T03:49:26;18.68;80.90
73547;SHT30;61807;48.384;-4.386;2022-09-02T03:51:52;18.71;80.80
73547;SHT30;61807;48.384;-4.386;2022-09-02T03:54:17;18.73;80.84
73547;SHT30;61807;48.384;-4.386;2022-09-02T03:56:43;18.72;80.86
73547;SHT30;61807;48.384;-4.386;2022-09-02T03:59:09;18.72;80.88
73547;SHT30;61807;48.384;-4.386;2022-09-02T04:01:34;18.75;80.90
73547;SHT30;61807;48.384;-4.386;2022-09-02T04:04:00;18.79;80.91
73547;SHT30;61807;48.384;-4.386;2022-09-02T04:06:26;18.79;80.96
73547;SHT30;61807;48.384;-4.386;2022-09-02T04:08:52;18.81;80.95
73547;SHT30;61807;48.384;-4.386;2022-09-02T04:11:19;18.81;80.97
73547;SHT30;61807;48.384;-4.386;2022-09-02T04:13:46;18.81;80.90
73547;SHT30;61807;48.384;-4.386;2022-09-02T04:16:15;18.76;80.86
73547;SHT30;61807;48.384;-4.386;2022-09-02T04:18:41;18.79;80.85
73547;SHT30;61807;48.384;-4.386;2022-09-02T04:21:09;18.78;80.88
73547;SHT30;61807;48.384;-4.386;2022-09-02T04:23:35;18.82;80.83
73547;SHT30;61807;48.384;-4.386;2022-09-02T04:26:09;18.82;80.86
73547;SHT30;61807;48.384;-4.386;2022-09-02T04:28:35;18.81;80.86
73547;SHT30;61807;48.384;-4.386;2022-09-02T04:31:09;18.81;80.83
73547;SHT30;61807;48.384;-4.386;2022-09-02T04:33:35;18.79;80.78
73547;SHT30;61807;48.384;-4.386;2022-09-02T04:36:06;18.82;80.87
73547;SHT30;61807;48.384;-4.386;2022-09-02T04:38:32;18.79;80.92
73547;SHT30;61807;48.384;-4.386;2022-09-02T04:40:58;18.78;80.91
73547;SHT30;61807;48.384;-4.386;2022-09-02T04:43:23;18.79;80.94
73547;SHT30;61807;48.384;-4.386;2022-09-02T04:45:49;18.78;80.93
73547;SHT30;61807;48.384;-4.386;2022-09-02T04:48:15;18.76;80.92
73547;SHT30;61807;48.384;-4.386;2022-09-02T04:50:41;18.73;80.99
73547;SHT30;61807;48.384;-4.386;2022-09-02T04:53:07;18.73;81.05
73547;SHT30;61807;48.384;-4.386;2022-09-02T04:55:33;18.72;80.97
73547;SHT30;61807;48.384;-4.386;2022-09-02T04:57:59;18.73;81.01
73547;SHT30;61807;48.384;-4.386;2022-09-02T05:00:24;18.76;80.95
73547;SHT30;61807;48.384;-4.386;2022-09-02T05:02:52;18.75;80.93
73547;SHT30;61807;48.384;-4.386;2022-09-02T05:05:18;18.76;80.96
73547;SHT30;61807;48.384;-4.386;2022-09-02T05:07:43;18.75;80.97
73547;SHT30;61807;48.384;-4.386;2022-09-02T05:10:09;18.72;80.99
73547;SHT30;61807;48.384;-4.386;2022-09-02T05:12:36;18.71;81.00
73547;SHT30;61807;48.384;-4.386;2022-09-02T05:15:05;18.78;80.92
73547;SHT30;61807;48.384;-4.386;2022-09-02T05:17:30;18.75;80.90
73547;SHT30;61807;48.384;-4.386;2022-09-02T05:19:57;18.75;80.93
73547;SHT30;61807;48.384;-4.386;2022-09-02T05:22:23;18.75;80.88
73547;SHT30;61807;48.384;-4.386;2022-09-02T05:24:50;18.71;80.75
73547;SHT30;61807;48.384;-4.386;2022-09-02T05:27:15;18.68;80.87
73547;SHT30;61807;48.384;-4.386;2022-09-02T05:29:41;18.67;80.82
73547;SHT30;61807;48.384;-4.386;2022-09-02T05:32:07;18.61;80.78
73547;SHT30;61807;48.384;-4.386;2022-09-02T05:34:34;18.58;80.69
73547;SHT30;61807;48.384;-4.386;2022-09-02T05:37:00;18.52;80.70
73547;SHT30;61807;48.384;-4.386;2022-09-02T05:39:26;18.48;80.71
73547;SHT30;61807;48.384;-4.386;2022-09-02T05:41:51;18.48;80.70
73547;SHT30;61807;48.384;-4.386;2022-09-02T05:44:16;18.47;80.81
73547;SHT30;61807;48.384;-4.386;2022-09-02T05:46:42;18.47;80.74
73547;SHT30;61807;48.384;-4.386;2022-09-02T05:49:07;18.48;80.82
73547;SHT30;61807;48.384;-4.386;2022-09-02T05:51:42;18.44;80.92
73547;SHT30;61807;48.384;-4.386;2022-09-02T05:54:12;18.43;80.88
73547;SHT30;61807;48.384;-4.386;2022-09-02T05:56:40;18.43;80.87
73547;SHT30;61807;48.384;-4.386;2022-09-02T05:59:06;18.41;81.02
73547;SHT30;61807;48.384;-4.386;2022-09-02T06:01:33;18.44;80.95
73547;SHT30;61807;48.384;-4.386;2022-09-02T06:03:59;18.43;81.03
73547;SHT30;61807;48.384;-4.386;2022-09-02T06:06:27;18.45;81.03
73547;SHT30;61807;48.384;-4.386;2022-09-02T06:08:53;18.48;81.01
73547;SHT30;61807;48.384;-4.386;2022-09-02T06:11:18;18.50;80.98
73547;SHT30;61807;48.384;-4.386;2022-09-02T06:13:45;18.48;80.96
73547;SHT30;61807;48.384;-4.386;2022-09-02T06:16:15;18.51;80.91
73547;SHT30;61807;48.384;-4.386;2022-09-02T06:18:42;18.52;80.97
73547;SHT30;61807;48.384;-4.386;2022-09-02T06:21:07;18.54;81.00
73547;SHT30;61807;48.384;-4.386;2022-09-02T06:23:36;18.55;80.99
73547;SHT30;61807;48.384;-4.386;2022-09-02T06:26:03;18.57;80.83
73547;SHT30;61807;48.384;-4.386;2022-09-02T06:28:28;18.59;80.99
73547;SHT30;61807;48.384;-4.386;2022-09-02T06:30:54;18.61;80.93
73547;SHT30;61807;48.384;-4.386;2022-09-02T06:33:19;18.62;80.80
73547;SHT30;61807;48.384;-4.386;2022-09-02T06:35:45;18.65;80.81
73547;SHT30;61807;48.384;-4.386;2022-09-02T06:38:12;18.67;80.83
73547;SHT30;61807;48.384;-4.386;2022-09-02T06:40:47;18.68;81.00
73547;SHT30;61807;48.384;-4.386;2022-09-02T06:43:12;18.71;81.01
73547;SHT30;61807;48.384;-4.386;2022-09-02T06:45:39;18.72;81.06
73547;SHT30;61807;48.384;-4.386;2022-09-02T06:48:05;18.76;81.06
73547;SHT30;61807;48.384;-4.386;2022-09-02T06:50:30;18.78;81.01
73547;SHT30;61807;48.384;-4.386;2022-09-02T06:52:55;18.76;81.10
73547;SHT30;61807;48.384;-4.386;2022-09-02T06:55:21;18.78;81.15
73547;SHT30;61807;48.384;-4.386;2022-09-02T06:57:46;18.82;81.15
73547;SHT30;61807;48.384;-4.386;2022-09-02T07:00:12;18.85;81.05
73547;SHT30;61807;48.384;-4.386;2022-09-02T07:02:37;18.88;80.99
73547;SHT30;61807;48.384;-4.386;2022-09-02T07:05:03;18.88;81.06
73547;SHT30;61807;48.384;-4.386;2022-09-02T07:07:37;18.94;81.05
73547;SHT30;61807;48.384;-4.386;2022-09-02T07:10:05;18.96;80.98
73547;SHT30;61807;48.384;-4.386;2022-09-02T07:12:33;18.96;81.03
73547;SHT30;61807;48.384;-4.386;2022-09-02T07:14:59;18.98;81.01
73547;SHT30;61807;48.384;-4.386;2022-09-02T07:17:24;19.00;80.99
73547;SHT30;61807;48.384;-4.386;2022-09-02T07:19:50;19.03;80.95
73547;SHT30;61807;48.384;-4.386;2022-09-02T07:22:15;19.06;80.96
73547;SHT30;61807;48.384;-4.386;2022-09-02T07:24:42;19.06;81.05
73547;SHT30;61807;48.384;-4.386;2022-09-02T07:27:08;19.10;81.08
73547;SHT30;61807;48.384;-4.386;2022-09-02T07:29:34;19.16;80.99
73547;SHT30;61807;48.384;-4.386;2022-09-02T07:31:59;19.20;80.83
73547;SHT30;61807;48.384;-4.386;2022-09-02T07:34:26;19.30;80.73
73547;SHT30;61807;48.384;-4.386;2022-09-02T07:36:52;19.37;80.55
73547;SHT30;61807;48.384;-4.386;2022-09-02T07:39:18;19.43;80.39
73547;SHT30;61807;48.384;-4.386;2022-09-02T07:41:46;19.49;80.23
73547;SHT30;61807;48.384;-4.386;2022-09-02T07:44:13;19.57;80.25
73547;SHT30;61807;48.384;-4.386;2022-09-02T07:46:38;19.61;80.21
73547;SHT30;61807;48.384;-4.386;2022-09-02T07:49:08;19.66;80.18
73547;SHT30;61807;48.384;-4.386;2022-09-02T07:51:36;19.67;80.09
73547;SHT30;61807;48.384;-4.386;2022-09-02T07:54:03;19.75;80.04
73547;SHT30;61807;48.384;-4.386;2022-09-02T07:56:29;19.75;80.05
73547;SHT30;61807;48.384;-4.386;2022-09-02T07:58:55;19.81;79.93
73547;SHT30;61807;48.384;-4.386;2022-09-02T08:01:20;19.81;80.02
73547;SHT30;61807;48.384;-4.386;2022-09-02T08:03:47;19.87;79.97
73547;SHT30;61807;48.384;-4.386;2022-09-02T08:06:13;19.92;80.00
73547;SHT30;61807;48.384;-4.386;2022-09-02T08:08:39;19.95;79.96
73547;SHT30;61807;48.384;-4.386;2022-09-02T08:11:06;19.95;79.87
73547;SHT30;61807;48.384;-4.386;2022-09-02T08:13:32;19.92;79.95
73547;SHT30;61807;48.384;-4.386;2022-09-02T08:15:58;19.96;79.89
73547;SHT30;61807;48.384;-4.386;2022-09-02T08:18:23;19.94;79.87
73547;SHT30;61807;48.384;-4.386;2022-09-02T08:20:49;19.94;79.87
73547;SHT30;61807;48.384;-4.386;2022-09-02T08:23:15;19.95;80.03
73547;SHT30;61807;48.384;-4.386;2022-09-02T08:25:40;20.01;79.98
73547;SHT30;61807;48.384;-4.386;2022-09-02T08:28:06;20.09;79.94
73547;SHT30;61807;48.384;-4.386;2022-09-02T08:30:32;20.12;79.69
73547;SHT30;61807;48.384;-4.386;2022-09-02T08:32:58;20.12;79.54
73547;SHT30;61807;48.384;-4.386;2022-09-02T08:35:23;20.16;79.42
73547;SHT30;61807;48.384;-4.386;2022-09-02T08:37:49;20.16;79.48
73547;SHT30;61807;48.384;-4.386;2022-09-02T08:40:18;20.14;79.32
73547;SHT30;61807;48.384;-4.386;2022-09-02T08:42:52;20.12;79.39
73547;SHT30;61807;48.384;-4.386;2022-09-02T08:45:30;20.18;79.46
73547;SHT30;61807;48.384;-4.386;2022-09-02T08:48:17;20.24;79.42
73547;SHT30;61807;48.384;-4.386;2022-09-02T08:50:45;20.28;79.41
73547;SHT30;61807;48.384;-4.386;2022-09-02T08:55:54;20.40;79.49
73547;SHT30;61807;48.384;-4.386;2022-09-02T08:58:28;20.46;79.10
73547;SHT30;61807;48.384;-4.386;2022-09-02T09:12:19;20.88;79.08
73547;SHT30;61807;48.384;-4.386;2022-09-02T09:15:32;20.95;78.90
73547;SHT30;61807;48.384;-4.386;2022-09-02T09:17:43;21.11;78.96
73547;SHT30;61807;48.384;-4.386;2022-09-02T09:20:17;21.24;78.29
73547;SHT30;61807;48.384;-4.386;2022-09-02T09:22:45;21.39;78.23
73547;SHT30;61807;48.384;-4.386;2022-09-02T09:25:12;21.59;77.73
73547;SHT30;61807;48.384;-4.386;2022-09-02T09:27:39;21.71;78.11
73547;SHT30;61807;48.384;-4.386;2022-09-02T09:30:06;21.78;77.70
73547;SHT30;61807;48.384;-4.386;2022-09-02T09:32:36;21.80;77.07
73547;SHT30;61807;48.384;-4.386;2022-09-02T09:37:45;21.92;76.74
73547;SHT30;61807;48.384;-4.386;2022-09-02T09:48:22;22.07;76.55
73547;SHT30;61807;48.384;-4.386;2022-09-02T09:51:09;22.07;76.43
73547;SHT30;61807;48.384;-4.386;2022-09-02T09:53:36;22.04;76.79
73547;SHT30;61807;48.384;-4.386;2022-09-02T10:01:30;22.03;75.99
73547;SHT30;61807;48.384;-4.386;2022-09-02T10:04:12;22.07;75.25
73547;SHT30;61807;48.384;-4.386;2022-09-02T10:06:49;22.14;76.16
73547;SHT30;61807;48.384;-4.386;2022-09-02T10:11:57;22.43;75.07
73547;SHT30;61807;48.384;-4.386;2022-09-02T10:14:22;22.55;74.78
73547;SHT30;61807;48.384;-4.386;2022-09-02T10:28:23;22.64;74.04
73547;SHT30;61807;48.384;-4.386;2022-09-02T10:33:38;22.58;74.54
73547;SHT30;61807;48.384;-4.386;2022-09-02T10:36:12;22.54;73.96
73547;SHT30;61807;48.384;-4.386;2022-09-02T10:38:43;22.50;74.22
73547;SHT30;61807;48.384;-4.386;2022-09-02T10:41:39;22.51;74.36
73547;SHT30;61807;48.384;-4.386;2022-09-02T10:47:02;22.62;73.74
73547;SHT30;61807;48.384;-4.386;2022-09-02T10:50:32;22.62;74.11
73547;SHT30;61807;48.384;-4.386;2022-09-02T10:55:38;22.69;73.93
73547;SHT30;61807;48.384;-4.386;2022-09-02T10:58:12;22.71;73.47
73547;SHT30;61807;48.384;-4.386;2022-09-02T11:00:40;22.81;73.32
73547;SHT30;61807;48.384;-4.386;2022-09-02T11:05:47;22.99;72.98
73547;SHT30;61807;48.384;-4.386;2022-09-02T11:08:24;23.16;72.40
73547;SHT30;61807;48.384;-4.386;2022-09-02T11:19:09;23.16;72.14
73547;SHT30;61807;48.384;-4.386;2022-09-02T11:21:51;23.02;72.30
73547;SHT30;61807;48.384;-4.386;2022-09-02T11:24:40;22.92;72.61
73547;SHT30;61807;48.384;-4.386;2022-09-02T11:32:34;22.85;72.91
73547;SHT30;61807;48.384;-4.386;2022-09-02T11:35:06;22.92;72.79
73547;SHT30;61807;48.384;-4.386;2022-09-02T11:37:58;23.05;73.01
73547;SHT30;61807;48.384;-4.386;2022-09-02T11:40:31;23.17;72.86
73547;SHT30;61807;48.384;-4.386;2022-09-02T11:54:18;23.64;71.92
73547;SHT30;61807;48.384;-4.386;2022-09-02T11:56:48;23.88;71.00
73547;SHT30;61807;48.384;-4.386;2022-09-02T12:08:04;23.58;71.14
73547;SHT30;61807;48.384;-4.386;2022-09-02T12:13:08;23.17;71.85
73547;SHT30;61807;48.384;-4.386;2022-09-02T12:15:34;23.00;71.89
73547;SHT30;61807;48.384;-4.386;2022-09-02T12:18:12;22.84;71.98
73547;SHT30;61807;48.384;-4.386;2022-09-02T12:23:07;22.54;72.26
73547;SHT30;61807;48.384;-4.386;2022-09-02T12:25:35;22.47;72.52
73547;SHT30;61807;48.384;-4.386;2022-09-02T12:33:31;22.31;72.91
73547;SHT30;61807;48.384;-4.386;2022-09-02T12:35:57;22.30;73.12
73547;SHT30;61807;48.384;-4.386;2022-09-02T12:38:29;22.27;73.44
73547;SHT30;61807;48.384;-4.386;2022-09-02T12:51:53;22.09;73.68
73547;SHT30;61807;48.384;-4.386;2022-09-02T12:54:31;22.13;73.69
73547;SHT30;61807;48.384;-4.386;2022-09-02T12:56:58;22.21;73.65
73547;SHT30;61807;48.384;-4.386;2022-09-02T12:59:33;22.29;73.42
73547;SHT30;61807;48.384;-4.386;2022-09-02T13:16:12;23.51;70.56
73547;SHT30;61807;48.384;-4.386;2022-09-02T13:19:09;24.05;68.87
73547;SHT30;61807;48.384;-4.386;2022-09-02T13:33:05;24.01;67.79
73547;SHT30;61807;48.384;-4.386;2022-09-02T13:35:35;23.95;68.44
73547;SHT30;61807;48.384;-4.386;2022-09-02T13:38:01;24.04;68.40
73547;SHT30;61807;48.384;-4.386;2022-09-02T13:40:31;24.09;68.75
73547;SHT30;61807;48.384;-4.386;2022-09-02T13:43:20;24.63;67.83
73547;SHT30;61807;48.384;-4.386;2022-09-02T13:45:47;25.14;65.88
73547;SHT30;61807;48.384;-4.386;2022-09-02T13:48:17;25.69;65.00
73547;SHT30;61807;48.384;-4.386;2022-09-02T13:50:45;25.94;64.09
73547;SHT30;61807;48.384;-4.386;2022-09-02T13:53:30;26.19;63.61
73547;SHT30;61807;48.384;-4.386;2022-09-02T13:55:57;26.44;62.17
73547;SHT30;61807;48.384;-4.386;2022-09-02T13:58:39;26.67;62.49
73547;SHT30;61807;48.384;-4.386;2022-09-02T14:01:27;26.50;62.24
73547;SHT30;61807;48.384;-4.386;2022-09-02T14:03:55;26.03;62.77
73547;SHT30;61807;48.384;-4.386;2022-09-02T14:06:29;25.66;63.18
73547;SHT30;61807;48.384;-4.386;2022-09-02T14:09:00;25.34;64.05
73547;SHT30;61807;48.384;-4.386;2022-09-02T14:11:27;25.17;64.27
73547;SHT30;61807;48.384;-4.386;2022-09-02T14:13:54;24.94;64.20
73547;SHT30;61807;48.384;-4.386;2022-09-02T14:16:34;24.95;64.78
73547;SHT30;61807;48.384;-4.386;2022-09-02T14:19:07;25.51;63.72
73547;SHT30;61807;48.384;-4.386;2022-09-02T14:21:34;26.12;62.39
73547;SHT30;61807;48.384;-4.386;2022-09-02T14:24:01;26.02;62.00
73547;SHT30;61807;48.384;-4.386;2022-09-02T14:26:32;25.75;62.49
73547;SHT30;61807;48.384;-4.386;2022-09-02T14:28:59;26.02;62.37
73547;SHT30;61807;48.384;-4.386;2022-09-02T14:31:27;26.00;61.32
73547;SHT30;61807;48.384;-4.386;2022-09-02T14:33:58;25.80;62.53
73547;SHT30;61807;48.384;-4.386;2022-09-02T14:36:36;25.78;62.37
73547;SHT30;61807;48.384;-4.386;2022-09-02T14:39:28;26.19;60.92
73547;SHT30;61807;48.384;-4.386;2022-09-02T14:41:55;26.61;60.63
73547;SHT30;61807;48.384;-4.386;2022-09-02T14:44:23;26.98;59.80
73547;SHT30;61807;48.384;-4.386;2022-09-02T14:46:53;27.35;58.71
73547;SHT30;61807;48.384;-4.386;2022-09-02T14:49:26;27.16;58.97
73547;SHT30;61807;48.384;-4.386;2022-09-02T14:51:57;27.00;59.10
73547;SHT30;61807;48.384;-4.386;2022-09-02T14:54:42;26.62;59.98
73547;SHT30;61807;48.384;-4.386;2022-09-02T14:59:49;26.20;60.56
73547;SHT30;61807;48.384;-4.386;2022-09-02T15:04:57;25.99;60.70
73547;SHT30;61807;48.384;-4.386;2022-09-02T15:07:24;25.97;60.39
73547;SHT30;61807;48.384;-4.386;2022-09-02T15:09:50;25.92;60.01
73547;SHT30;61807;48.384;-4.386;2022-09-02T15:12:18;25.82;60.31
73547;SHT30;61807;48.384;-4.386;2022-09-02T15:14:50;25.71;60.59
73547;SHT30;61807;48.384;-4.386;2022-09-02T15:17:17;25.55;60.90
73547;SHT30;61807;48.384;-4.386;2022-09-02T15:19:43;25.39;61.07
73547;SHT30;61807;48.384;-4.386;2022-09-02T15:22:08;25.17;61.45
73547;SHT30;61807;48.384;-4.386;2022-09-02T15:24:34;24.97;61.59
73547;SHT30;61807;48.384;-4.386;2022-09-02T15:26:59;24.79;62.14
73547;SHT30;61807;48.384;-4.386;2022-09-02T15:29:25;24.67;62.69
73547;SHT30;61807;48.384;-4.386;2022-09-02T15:31:51;24.59;62.53
73547;SHT30;61807;48.384;-4.386;2022-09-02T15:34:16;24.52;62.80
73547;SHT30;61807;48.384;-4.386;2022-09-02T15:36:42;24.43;62.97
73547;SHT30;61807;48.384;-4.386;2022-09-02T15:39:08;24.33;62.28
73547;SHT30;61807;48.384;-4.386;2022-09-02T15:41:33;24.16;62.78
73547;SHT30;61807;48.384;-4.386;2022-09-02T15:43:59;24.08;62.98
73547;SHT30;61807;48.384;-4.386;2022-09-02T15:46:28;24.02;63.13
73547;SHT30;61807;48.384;-4.386;2022-09-02T15:48:55;23.89;63.30
73547;SHT30;61807;48.384;-4.386;2022-09-02T15:51:24;23.82;63.48
73547;SHT30;61807;48.384;-4.386;2022-09-02T15:53:54;23.75;63.69
73547;SHT30;61807;48.384;-4.386;2022-09-02T15:56:24;23.71;63.47
73547;SHT30;61807;48.384;-4.386;2022-09-02T16:01:27;23.64;63.96
73547;SHT30;61807;48.384;-4.386;2022-09-02T16:03:53;23.61;63.85
73547;SHT30;61807;48.384;-4.386;2022-09-02T16:06:20;23.57;63.94
73547;SHT30;61807;48.384;-4.386;2022-09-02T16:08:45;23.57;64.32
73547;SHT30;61807;48.384;-4.386;2022-09-02T16:11:10;23.57;64.18
73547;SHT30;61807;48.384;-4.386;2022-09-02T16:13:36;23.60;64.60
73547;SHT30;61807;48.384;-4.386;2022-09-02T16:16:05;23.64;64.63
73547;SHT30;61807;48.384;-4.386;2022-09-02T16:18:31;23.68;64.29
73547;SHT30;61807;48.384;-4.386;2022-09-02T16:20:56;23.64;64.05
73547;SHT30;61807;48.384;-4.386;2022-09-02T16:23:22;23.57;64.17
73547;SHT30;61807;48.384;-4.386;2022-09-02T16:25:47;23.45;64.15
73547;SHT30;61807;48.384;-4.386;2022-09-02T16:28:13;23.33;64.65
73547;SHT30;61807;48.384;-4.386;2022-09-02T16:30:39;23.19;65.06
73547;SHT30;61807;48.384;-4.386;2022-09-02T16:33:05;23.08;65.21
73547;SHT30;61807;48.384;-4.386;2022-09-02T16:35:30;23.00;65.46
73547;SHT30;61807;48.384;-4.386;2022-09-02T16:37:56;22.92;65.19
73547;SHT30;61807;48.384;-4.386;2022-09-02T16:40:21;22.84;65.61
73547;SHT30;61807;48.384;-4.386;2022-09-02T16:42:47;22.84;65.83
73547;SHT30;61807;48.384;-4.386;2022-09-02T16:45:13;22.79;66.07
73547;SHT30;61807;48.384;-4.386;2022-09-02T16:47:39;22.75;66.35
73547;SHT30;61807;48.384;-4.386;2022-09-02T16:50:04;22.71;66.39
73547;SHT30;61807;48.384;-4.386;2022-09-02T16:52:30;22.69;66.61
73547;SHT30;61807;48.384;-4.386;2022-09-02T16:54:59;22.64;66.78
73547;SHT30;61807;48.384;-4.386;2022-09-02T16:57:25;22.58;67.05
73547;SHT30;61807;48.384;-4.386;2022-09-02T16:59:50;22.59;67.26
73547;SHT30;61807;48.384;-4.386;2022-09-02T17:02:16;22.57;67.49
73547;SHT30;61807;48.384;-4.386;2022-09-02T17:04:41;22.45;67.59
73547;SHT30;61807;48.384;-4.386;2022-09-02T17:07:07;22.34;67.83
73547;SHT30;61807;48.384;-4.386;2022-09-02T17:09:33;22.24;68.08
73547;SHT30;61807;48.384;-4.386;2022-09-02T17:11:59;22.18;68.34
73547;SHT30;61807;48.384;-4.386;2022-09-02T17:14:24;22.11;68.33
73547;SHT30;61807;48.384;-4.386;2022-09-02T17:16:50;22.10;68.40
73547;SHT30;61807;48.384;-4.386;2022-09-02T17:19:17;22.10;68.44
73547;SHT30;61807;48.384;-4.386;2022-09-02T17:21:48;22.07;68.45
73547;SHT30;61807;48.384;-4.386;2022-09-02T17:24:19;22.03;68.59
73547;SHT30;61807;48.384;-4.386;2022-09-02T17:26:47;21.94;68.64
73547;SHT30;61807;48.384;-4.386;2022-09-02T17:29:17;21.86;68.79
73547;SHT30;61807;48.384;-4.386;2022-09-02T17:31:42;21.73;68.99
73547;SHT30;61807;48.384;-4.386;2022-09-02T17:34:08;21.67;69.34
73547;SHT30;61807;48.384;-4.386;2022-09-02T17:36:37;21.59;69.40
73547;SHT30;61807;48.384;-4.386;2022-09-02T17:39:14;21.56;69.65
73547;SHT30;61807;48.384;-4.386;2022-09-02T17:41:40;21.53;69.71
73547;SHT30;61807;48.384;-4.386;2022-09-02T17:44:28;21.46;70.00
73547;SHT30;61807;48.384;-4.386;2022-09-02T17:46:59;21.42;69.96
73547;SHT30;61807;48.384;-4.386;2022-09-02T17:49:25;21.38;70.04
73547;SHT30;61807;48.384;-4.386;2022-09-02T17:51:52;21.32;70.04